Accueil
METAR-TAF:

METAR-TAF

Aéroports :

Waterville Robert LaFleur Airport

Waterville, Maine, États-Unis

latitude: 44-32N, longitude: 069-41W, altitude: 101 m

Observation

Le bulletin a été fait il y a 1 heure et 1 minutes, à 22:56 UTC
Vent 13 kt de nord
Température 17°C
Humidité 48%
Pression 1013 hPa
Visibilité: 14.5 km
Ciel clair

METAR: KWVL 232256Z AUTO 01013KT 9SM CLR 17/06 A2990 RMK AO2 SLP151 T01720061 $

Heure: 19:57 (23:57 UTC)


TAF: absent

Observations et prévisions météorologiques de plus de 4000 aéroports (messages METAR et TAF).

Les stations disponibles sont représentées par des disques jaunes et rouges sur la carte.

Passer la souris dessus pour voir le nom de la station.

Cliquer dessus pour voir les observations et prévisions météorologiques.

Pour changer de carte: cliquez sur les boutons verts avec une croix noire pour zoomer, sur le bouton vert avec un tiret pour effectuer un zoom arrière, ou sur les flèches vertes pour les cartes adjacentes.


METAR-TAF: